aviador You're here:

KAOO Decoded Metar

ALTOONA in PA, USA
Report Time2018-01-18 20:53:00
UTC Time2018-01-18 21:42:56
Flight Rules vfr VFR
Wind290° at 13 kt
W.Decomp.*RWY 30: 13.0 kt HW 0 kt LCW
RWY 21: 13.0 kt RCW
W.Rank290° ranks 3
Current wind is above 290° avg. (9.4)
Visibility9999 m
Phenomena:N/A
Clouds:N/A
Expected CloudBase > 4,400 ft AGL from Temp-Dew spread
CeilingNone
Temp-1°C (ISA -13)
Dew Point-12°C (43% RH)
AAT-8.9°C
QNH1016 hPa
Density Alt-161 ft
Elevation1,493 ft
Report Wrong Elevation
Raw Report
METAR KAOO 182053Z AUTO 29013KT 10SM CLR M01/M12 A3001 RMK AO2 SLP185
T10111122 55008=

Extra information for KAOO:More info

Metar Taf Metar & Taf Last 4 Metars F.Rules Stats Wind Profile Meteogram Temp Stats Airport Information Weather charts Add Link Nearby VenuesMetar ALERT Operation Metar Decoded Social comments

AIRNAV info for KAOO